ΕΜΥ, Εθνική Μετεωρολογική Υπηρεσία - Δελτία Καιρού, Προγνώσεις

ΑΕΡΟΝΑΥΤΙΛΙΑ

GREEK AIRPORTS CODES

TAF LGML 050400Z 0506/0515 36016G28KT 9999 FEW018 BKN030 BECMG 0507/0509 36025G40KT PROB40 TEMPO 0506/0515 5000 RA FEW018TCU BKN025 PROB40 TEMPO 0506/0515 4000 TSRA SCT012 FEW018CB BKN020=

EUROPEAN AIRPORTS CODES